Aérodrome :
LOGIN :

S'inscrire | Disclaimer

   EN    FR    IT 

 










Légende :    VFR   VFR Marginal   IFR   IFR Intensif   IFR Très Intensif
Visi : 
Plafond : 
>= 8 km
>= 3000ft
5 à 8 km
1000 à 3000 ft
1500m à 5 km
500 à 1000 ft
800 à 1500m
200 à 500 ft
< 800m
< 200 ft
Symboles :   Orages  Brouillard  Fortes neiges  Fortes précipitations  Vent > 20 kt
SIGMETs :   Divers  Orages  Givrage  Turbulence  Onde Orograph.  Cendres Volcan.






- Altitude de l'aérodrome : 989 ft
- Code IATA : TRN


LIMF - Torino Caselle

DERNIER METAR :
  • 220620Z 35005KT 0800 R36/P1500N FG BKN003 BKN020 03/03 Q1006

METARs EXPIRÉS :
  • 220550Z AUTO 35004KT 0800 R36/P1500N FG OVC004/// 02/02 Q1006
  • 220520Z AUTO VRB01KT 0550 R36/1400U FG OVC003/// 03/02 Q1006
  • 220450Z AUTO 18002KT 0400 R36/1300U FG OVC004/// 02/02 Q1006
  • 220420Z AUTO VRB02KT 0350 R36/1200D FG OVC004/// 02/02 Q1006
  • 220350Z AUTO VRB01KT 0650 R36/P1500N FG OVC006/// 02/02 Q1006

TAF TAF LIMF
Valide du 22 à 06h jusqu'au 23 à 06h UTC


220500Z 2206/2306 VRB03KT 0500 FG OVC005
BECMG 2208/2210 1300 BR BKN015
TEMPO 2212/2221 RA



MET'MAP, la Météo Aéronautique d'un coup d'oeil ! - Copyright ORBIFLY Décembre 2007 - Disclaimer

ORBIFLY MET'MAP TEAM :

Programmation & Développement : Alexandra Zaïnal
Sur une idée originale de : Baudouin d'Aumeries
Assistance à la programmation : Marc-Olivier Méhu
Soutien technique & logistique : Manuel Goepfert

Contact : metmap@orbifly.com




SOURCES & CREDITS :

   NOAA